Time;durP1;ratioP1;P1;durP2;ratioP2;P2;SDS_P1;SDS_P2;PMS_P1;PMS_P2;Temp;Humidity;BMP_temperature;BMP_pressure;BME280_temperature;BME280_humidity;BME280_pressure;Samples;Min_cycle;Max_cycle;Signal;HPM_P1;HPM_P2
2024/01/18 00:01:33;;;;;;;14.40;11.77;;;-2.50;99.90;;;;;;4849344;29;20065;-82
2024/01/18 00:03:59;;;;;;;14.50;11.77;;;-2.60;99.90;;;;;;4849933;29;20081;-83
2024/01/18 00:06:26;;;;;;;11.82;10.65;;;-2.60;99.90;;;;;;4835045;29;20073;-82
2024/01/18 00:08:51;;;;;;;12.65;9.80;;;-2.50;99.90;;;;;;4849075;29;20113;-83
2024/01/18 00:11:17;;;;;;;14.88;10.85;;;-1.30;99.90;;;;;;4835719;29;20077;-83
2024/01/18 00:13:44;;;;;;;10.98;9.65;;;-2.50;99.90;;;;;;4848238;29;20038;-83
2024/01/18 00:16:10;;;;;;;12.85;9.80;;;-2.60;99.90;;;;;;4834816;29;20046;-83
2024/01/18 00:18:35;;;;;;;11.70;9.48;;;-2.60;99.90;;;;;;4848781;29;20050;-83
2024/01/18 00:21:01;;;;;;;10.10;8.73;;;-2.50;99.90;;;;;;4834606;29;20045;-83
2024/01/18 00:23:27;;;;;;;10.25;9.15;;;-2.50;99.90;;;;;;4849053;29;20047;-83
2024/01/18 00:25:53;;;;;;;10.60;9.50;;;-2.50;99.90;;;;;;4849347;29;20082;-82
2024/01/18 00:28:18;;;;;;;12.77;9.25;;;-2.40;99.90;;;;;;4834755;29;20050;-82
2024/01/18 00:30:44;;;;;;;9.85;8.85;;;-2.40;99.90;;;;;;4833007;29;20573;-83
2024/01/18 00:33:10;;;;;;;15.95;9.95;;;-2.30;99.90;;;;;;4850138;29;20045;-83
2024/01/18 00:35:35;;;;;;;15.45;9.00;;;-2.30;99.90;;;;;;4848273;29;20048;-82
2024/01/18 00:38:01;;;;;;;11.95;9.20;;;-2.30;99.90;;;;;;4834887;29;20058;-83
2024/01/18 00:40:27;;;;;;;15.63;9.07;;;-1.60;99.90;;;;;;4861381;29;20050;-82
2024/01/18 00:42:53;;;;;;;12.77;8.90;;;-2.20;99.90;;;;;;4853254;29;20073;-84
2024/01/18 00:45:18;;;;;;;9.80;8.40;;;-1.60;99.90;;;;;;4853477;29;20050;-83
2024/01/18 00:47:44;;;;;;;9.13;7.82;;;-2.10;99.90;;;;;;4852185;29;20085;-83
2024/01/18 00:50:10;;;;;;;11.40;9.10;;;-2.10;99.90;;;;;;4837547;29;20073;-82
2024/01/18 00:52:36;;;;;;;10.90;8.77;;;-2.00;99.90;;;;;;4851363;29;20082;-83
2024/01/18 00:55:01;;;;;;;10.48;8.75;;;-2.00;99.90;;;;;;4853359;29;20053;-82
2024/01/18 00:57:28;;;;;;;13.15;8.18;;;-2.00;99.90;;;;;;4852156;29;20042;-82
2024/01/18 00:59:54;;;;;;;10.00;8.57;;;-2.00;99.90;;;;;;4852662;29;20053;-83
2024/01/18 01:02:20;;;;;;;8.85;7.57;;;-2.00;99.90;;;;;;4837707;29;20101;-83
2024/01/18 01:04:46;;;;;;;8.52;7.63;;;-2.00;99.90;;;;;;4851410;29;20451;-83
2024/01/18 01:07:12;;;;;;;10.40;7.55;;;-2.10;99.90;;;;;;4852881;29;20042;-83
2024/01/18 01:09:37;;;;;;;10.55;8.50;;;-2.10;99.90;;;;;;4852081;29;20348;-83
2024/01/18 01:12:03;;;;;;;10.93;8.00;;;-2.20;99.90;;;;;;4853195;29;20061;-84
2024/01/18 01:14:29;;;;;;;12.32;7.50;;;-2.30;99.90;;;;;;4852280;29;20038;-83
2024/01/18 01:16:55;;;;;;;10.10;7.82;;;-2.50;99.90;;;;;;4852115;29;20046;-84
2024/01/18 01:19:21;;;;;;;13.45;7.97;;;-2.60;99.90;;;;;;4837559;29;20050;-83
2024/01/18 01:21:47;;;;;;;12.07;8.57;;;-2.60;99.90;;;;;;4850899;29;20042;-83
2024/01/18 01:24:12;;;;;;;9.57;8.55;;;-2.60;99.90;;;;;;4837412;29;20141;-83
2024/01/18 01:26:38;;;;;;;12.18;8.35;;;-2.60;99.90;;;;;;4851410;29;20076;-82
2024/01/18 01:29:05;;;;;;;11.70;8.68;;;-2.60;99.90;;;;;;4852376;29;20046;-83
2024/01/18 01:31:31;;;;;;;9.07;7.95;;;-2.60;99.90;;;;;;4851231;29;20138;-83
2024/01/18 01:33:56;;;;;;;11.27;8.23;;;-2.60;99.90;;;;;;4852389;29;20053;-84
2024/01/18 01:36:22;;;;;;;14.02;9.00;;;-2.60;99.90;;;;;;4836776;29;20049;-83
2024/01/18 01:38:48;;;;;;;11.93;8.40;;;-2.60;99.90;;;;;;4848741;29;20522;-83
2024/01/18 01:41:14;;;;;;;8.80;7.90;;;-2.70;99.90;;;;;;4852178;29;20045;-84
2024/01/18 01:44:00;;;;;;;9.10;8.27;;;-2.70;99.90;;;;;;4851045;29;20041;-83
2024/01/18 01:46:29;;;;;;;11.45;8.57;;;-2.80;99.90;;;;;;4850473;29;20050;-84
2024/01/18 01:49:01;;;;;;;12.48;8.50;;;-2.70;99.90;;;;;;4851281;29;20102;-84
2024/01/18 01:51:36;;;;;;;11.20;8.90;;;-2.70;99.90;;;;;;4851573;29;20125;-84
2024/01/18 01:54:06;;;;;;;9.40;8.30;;;-2.70;99.90;;;;;;4851820;29;20046;-85
2024/01/18 01:56:34;;;;;;;9.80;8.27;;;-2.70;99.90;;;;;;4850851;29;20078;-85
2024/01/18 01:59:00;;;;;;;9.50;8.45;;;-2.70;99.90;;;;;;4851822;29;20074;-85
2024/01/18 02:01:26;;;;;;;8.98;8.23;;;-2.70;99.90;;;;;;4850287;29;20080;-84
2024/01/18 02:03:52;;;;;;;13.60;8.82;;;-2.70;99.90;;;;;;4851554;29;20077;-84
2024/01/18 02:06:18;;;;;;;13.55;8.77;;;-2.80;99.90;;;;;;4851507;29;20106;-84
2024/01/18 02:08:45;;;;;;;13.68;7.75;;;-2.80;99.90;;;;;;4851190;29;20050;-85
2024/01/18 02:11:12;;;;;;;9.98;7.53;;;-2.80;99.90;;;;;;4866875;29;20056;-85
2024/01/18 02:13:41;;;;;;;9.45;7.60;;;-2.90;99.90;;;;;;4850590;29;20042;-85
2024/01/18 02:16:07;;;;;;;9.32;7.63;;;-3.00;99.90;;;;;;4851681;29;20117;-85
2024/01/18 02:18:32;;;;;;;9.55;7.93;;;-3.00;99.90;;;;;;4835242;29;20054;-87
2024/01/18 02:20:58;;;;;;;10.82;8.45;;;-3.00;99.90;;;;;;4836335;29;20046;-87
2024/01/18 02:23:28;;;;;;;10.23;7.28;;;-1.20;99.90;;;;;;4851171;29;20110;-88
2024/01/18 02:25:53;;;;;;;9.68;7.78;;;-3.10;99.90;;;;;;4850747;29;20054;-88
2024/01/18 02:28:19;;;;;;;10.50;8.02;;;-3.00;99.90;;;;;;4851496;29;20056;-87
2024/01/18 02:30:45;;;;;;;10.23;8.05;;;-3.00;99.90;;;;;;4849655;29;20053;-88
2024/01/18 02:33:10;;;;;;;7.65;7.00;;;-3.00;99.90;;;;;;4852056;29;20045;-88
2024/01/18 02:35:37;;;;;;;7.22;6.05;;;-2.50;99.90;;;;;;4850268;29;20049;-90
2024/01/18 02:38:04;;;;;;;8.85;7.97;;;-3.00;99.90;;;;;;4851817;29;20137;-89
2024/01/18 02:40:29;;;;;;;7.95;7.15;;;-3.00;99.90;;;;;;4851436;29;20057;-90
2024/01/18 02:42:55;;;;;;;10.02;7.57;;;-2.90;99.90;;;;;;4835961;29;20050;-88
2024/01/18 02:45:22;;;;;;;9.15;7.93;;;-2.80;99.90;;;;;;4859076;29;20054;-89
2024/01/18 02:47:47;;;;;;;8.05;7.22;;;-2.70;99.90;;;;;;4834539;29;20054;-89
2024/01/18 02:50:13;;;;;;;8.60;7.38;;;-2.60;99.90;;;;;;4851433;29;20088;-89
2024/01/18 02:52:39;;;;;;;7.97;7.05;;;-2.60;99.90;;;;;;4850020;29;20045;-89
2024/01/18 02:55:06;;;;;;;7.97;7.28;;;-2.60;99.90;;;;;;4851447;29;20125;-88
2024/01/18 02:57:32;;;;;;;8.05;6.85;;;-2.60;99.90;;;;;;4850741;29;20101;-89
2024/01/18 02:59:57;;;;;;;7.63;6.90;;;-2.70;99.90;;;;;;4850874;29;20082;-88
2024/01/18 03:02:23;;;;;;;9.65;6.80;;;-2.70;99.90;;;;;;4851098;29;20046;-89
2024/01/18 03:04:49;;;;;;;6.82;6.13;;;-2.80;99.90;;;;;;4848849;29;20132;-89
2024/01/18 03:07:14;;;;;;;7.05;6.35;;;-2.30;99.90;;;;;;4851153;29;20050;-89
2024/01/18 03:09:40;;;;;;;9.73;6.18;;;-2.80;99.90;;;;;;4849377;29;20045;-88
2024/01/18 03:12:07;;;;;;;10.30;6.93;;;-2.90;99.90;;;;;;4851466;29;20117;-88
2024/01/18 03:14:33;;;;;;;8.50;6.80;;;-2.90;99.90;;;;;;4850186;29;20069;-88
2024/01/18 03:16:59;;;;;;;10.07;6.57;;;-2.90;99.90;;;;;;4850232;29;20093;-89
2024/01/18 03:19:25;;;;;;;7.55;6.78;;;-2.90;99.90;;;;;;4851553;29;20125;-88
2024/01/18 03:21:50;;;;;;;7.45;6.68;;;-2.90;99.90;;;;;;4834819;29;20049;-90
2024/01/18 03:24:16;;;;;;;7.88;6.30;;;-2.80;99.90;;;;;;4846227;29;20094;-90
2024/01/18 03:26:41;;;;;;;8.55;6.80;;;-2.80;99.90;;;;;;4835008;29;20038;-90
2024/01/18 03:29:09;;;;;;;7.95;7.03;;;-2.80;99.90;;;;;;4863927;29;20050;-89
2024/01/18 03:31:34;;;;;;;7.03;6.32;;;-2.80;99.90;;;;;;4834530;29;20129;-89
2024/01/18 03:34:00;;;;;;;6.75;6.15;;;-2.80;99.90;;;;;;4836093;29;20535;-89
2024/01/18 03:36:26;;;;;;;6.93;6.25;;;-2.80;99.90;;;;;;4851011;29;20050;-91
2024/01/18 03:38:52;;;;;;;6.55;5.95;;;-2.90;99.90;;;;;;4835035;29;20064;-90
2024/01/18 03:41:18;;;;;;;6.07;5.57;;;-2.90;99.90;;;;;;4837903;29;20038;-90
2024/01/18 03:43:43;;;;;;;6.18;5.68;;;-2.90;99.90;;;;;;4860498;29;20044;-90
2024/01/18 03:46:15;;;;;;;8.00;6.05;;;-2.50;99.90;;;;;;4850720;29;20050;-91
2024/01/18 03:48:41;;;;;;;7.55;5.70;;;-3.00;99.90;;;;;;4850037;29;20447;-91
2024/01/18 03:51:07;;;;;;;5.80;5.30;;;-3.00;99.90;;;;;;4850884;29;20077;-91
2024/01/18 03:53:33;;;;;;;5.90;5.30;;;-3.00;99.90;;;;;;4851654;29;20105;-91
2024/01/18 03:55:59;;;;;;;6.07;5.53;;;-3.10;99.90;;;;;;4850002;29;20078;-90
2024/01/18 03:58:25;;;;;;;5.57;5.05;;;-3.10;99.90;;;;;;4851256;29;20085;-91
2024/01/18 04:00:51;;;;;;;7.65;5.57;;;-3.10;99.90;;;;;;4833823;29;20049;-90
2024/01/18 04:03:17;;;;;;;5.50;5.00;;;-3.10;99.90;;;;;;4826755;29;20050;-91
2024/01/18 04:05:42;;;;;;;6.25;5.13;;;-3.10;99.90;;;;;;4849693;29;20049;-91
2024/01/18 04:08:08;;;;;;;6.35;4.97;;;-3.20;99.90;;;;;;4851304;29;20046;-91
2024/01/18 04:10:35;;;;;;;5.65;5.15;;;-3.10;99.90;;;;;;4851002;29;20065;-93
2024/01/18 04:13:01;;;;;;;5.13;4.70;;;-3.10;99.90;;;;;;4834982;29;20038;-94
2024/01/18 04:15:26;;;;;;;6.18;5.50;;;-3.00;99.90;;;;;;4853694;29;20079;-94
2024/01/18 04:17:52;;;;;;;5.63;5.00;;;-3.00;99.90;;;;;;4851812;29;20122;-93
2024/01/18 04:20:23;;;;;;;5.80;5.30;;;-2.90;99.90;;;;;;4839395;29;20064;-91
2024/01/18 04:22:48;;;;;;;5.35;4.88;;;-2.80;99.90;;;;;;4858200;29;20061;-92
2024/01/18 04:25:14;;;;;;;5.43;4.85;;;-2.80;99.90;;;;;;4854752;29;20050;-93
2024/01/18 04:27:40;;;;;;;5.20;4.80;;;-2.80;99.90;;;;;;4853726;29;20045;-93
2024/01/18 04:30:07;;;;;;;4.30;4.00;;;-2.70;99.90;;;;;;4852386;29;20054;-90
2024/01/18 04:32:33;;;;;;;4.78;4.38;;;-2.70;99.90;;;;;;4852676;29;20116;-90
2024/01/18 04:34:59;;;;;;;4.90;4.38;;;-2.70;99.90;;;;;;4851077;29;20126;-92
2024/01/18 04:37:25;;;;;;;5.10;4.70;;;-2.60;99.90;;;;;;4835361;29;20069;-94
2024/01/18 04:39:50;;;;;;;4.40;4.10;;;-2.80;99.90;;;;;;4848762;29;20456;-93
2024/01/18 04:42:16;;;;;;;4.75;4.35;;;-2.50;99.90;;;;;;4853336;29;20038;-92
2024/01/18 04:44:42;;;;;;;4.85;4.47;;;-2.40;99.90;;;;;;4836099;29;20046;-89
2024/01/18 04:47:08;;;;;;;6.60;4.72;;;-2.30;99.90;;;;;;4853014;29;20048;-95
2024/01/18 04:49:34;;;;;;;6.85;4.60;;;-2.30;99.90;;;;;;4837809;29;20048;-94
2024/01/18 04:52:00;;;;;;;5.30;4.90;;;-2.20;99.90;;;;;;4851669;29;20081;-91
2024/01/18 04:54:25;;;;;;;4.57;4.20;;;-2.00;99.90;;;;;;4853007;29;20121;-90
2024/01/18 04:56:51;;;;;;;5.05;4.75;;;-2.00;99.90;;;;;;4850793;29;20042;-89
2024/01/18 04:59:17;;;;;;;5.80;4.53;;;-1.90;99.90;;;;;;4837563;29;20398;-94
2024/01/18 05:01:43;;;;;;;5.45;4.50;;;-1.80;99.90;;;;;;4851065;29;20045;-93
2024/01/18 05:04:09;;;;;;;5.13;4.32;;;-1.70;99.90;;;;;;4837274;29;20078;-94
2024/01/18 05:06:35;;;;;;;5.00;4.70;;;-1.60;99.90;;;;;;4852450;29;20041;-91
2024/01/18 05:09:01;;;;;;;4.95;4.55;;;-1.50;99.90;;;;;;4851488;29;20038;-89
2024/01/18 05:11:27;;;;;;;4.85;4.57;;;-1.50;99.90;;;;;;4867439;29;20050;-89
2024/01/18 05:13:53;;;;;;;4.55;4.25;;;-1.40;99.90;;;;;;4850287;29;20039;-87
2024/01/18 05:16:19;;;;;;;4.45;4.15;;;-1.40;99.90;;;;;;4852240;29;20046;-87
2024/01/18 05:18:46;;;;;;;4.68;4.25;;;-1.30;99.90;;;;;;4835271;29;20046;-85
2024/01/18 05:21:11;;;;;;;4.25;3.95;;;-1.30;99.90;;;;;;4851731;29;20058;-86
2024/01/18 05:23:37;;;;;;;4.30;4.00;;;-1.30;99.90;;;;;;4836716;29;20184;-85
2024/01/18 05:26:04;;;;;;;4.63;4.22;;;-1.30;99.90;;;;;;4850867;29;20038;-84
2024/01/18 05:28:29;;;;;;;4.60;4.25;;;-1.30;99.90;;;;;;4851062;29;20099;-84
2024/01/18 05:30:57;;;;;;;4.40;4.10;;;0.20;99.90;;;;;;4849726;29;20045;-86
2024/01/18 05:33:22;;;;;;;4.40;4.00;;;-0.40;99.90;;;;;;4837058;29;20081;-85
2024/01/18 05:35:48;;;;;;;4.53;4.22;;;-1.40;99.90;;;;;;4850416;29;20056;-85
2024/01/18 05:38:14;;;;;;;4.97;4.45;;;-1.40;99.90;;;;;;4836378;29;20089;-86
2024/01/18 05:40:40;;;;;;;4.35;4.05;;;-1.50;99.90;;;;;;4858484;29;20046;-86
2024/01/18 05:43:06;;;;;;;4.10;3.80;;;-1.60;99.90;;;;;;4850022;29;20034;-86
2024/01/18 05:45:31;;;;;;;4.82;4.45;;;-1.60;99.90;;;;;;4851364;29;20034;-86
2024/01/18 05:47:57;;;;;;;4.40;4.10;;;-1.70;99.90;;;;;;4850018;29;20045;-86
2024/01/18 05:50:23;;;;;;;4.10;3.90;;;-1.70;99.90;;;;;;4851653;29;20046;-86
2024/01/18 05:52:48;;;;;;;3.90;3.70;;;-1.80;99.90;;;;;;4849818;29;20049;-86
2024/01/18 05:55:14;;;;;;;4.07;3.78;;;-1.90;99.90;;;;;;4851735;29;20057;-86
2024/01/18 05:57:41;;;;;;;3.63;3.42;;;-2.00;99.90;;;;;;4835122;29;20042;-87
2024/01/18 06:00:07;;;;;;;3.72;3.42;;;-2.10;99.90;;;;;;4856544;29;20112;-89
2024/01/18 06:02:33;;;;;;;4.53;3.55;;;-2.20;99.90;;;;;;4851116;29;20050;-88
2024/01/18 06:05:00;;;;;;;3.35;3.15;;;-2.30;99.90;;;;;;4835020;29;20114;-89
2024/01/18 06:07:26;;;;;;;3.50;3.30;;;-2.50;99.90;;;;;;4851702;29;20113;-90
2024/01/18 06:09:52;;;;;;;4.05;3.80;;;-2.60;99.90;;;;;;4849693;29;20054;-92
2024/01/18 06:12:18;;;;;;;4.28;3.97;;;-2.70;99.90;;;;;;4851628;29;20159;-92
2024/01/18 06:14:43;;;;;;;4.40;4.00;;;-2.70;99.90;;;;;;4835344;29;20046;-90
2024/01/18 06:17:09;;;;;;;4.80;4.40;;;-2.70;99.90;;;;;;4833136;29;20086;-92
2024/01/18 06:19:35;;;;;;;5.63;5.13;;;-2.40;99.90;;;;;;4844579;29;20052;-92
2024/01/18 06:22:00;;;;;;;4.50;4.25;;;-2.60;99.90;;;;;;4838582;29;20503;-92
2024/01/18 06:24:28;;;;;;;4.93;4.63;;;-2.60;99.90;;;;;;4838872;29;20053;-93
2024/01/18 06:26:55;;;;;;;4.80;4.40;;;-2.60;99.90;;;;;;4835019;29;20038;-93
2024/01/18 06:29:26;;;;;;;4.65;4.32;;;-2.60;99.90;;;;;;4837831;29;20476;-92
2024/01/18 06:31:52;;;;;;;8.18;4.50;;;-2.50;99.90;;;;;;4835403;29;20046;-92
2024/01/18 06:34:18;;;;;;;4.50;4.20;;;-2.50;99.90;;;;;;4851068;29;20056;-92
2024/01/18 06:36:44;;;;;;;4.85;4.10;;;-1.50;99.90;;;;;;4837098;29;20066;-91
2024/01/18 06:39:10;;;;;;;4.32;3.95;;;-2.60;99.90;;;;;;4851132;29;20055;-90
2024/01/18 06:41:36;;;;;;;4.53;4.22;;;-2.60;99.90;;;;;;4851225;29;20037;-91
2024/01/18 06:44:02;;;;;;;4.78;4.47;;;-2.60;99.90;;;;;;4834110;29;20137;-91
2024/01/18 06:46:29;;;;;;;4.43;4.15;;;-2.60;99.90;;;;;;4852320;29;20046;-90
2024/01/18 06:48:57;;;;;;;3.80;3.60;;;-2.60;99.90;;;;;;4850017;29;20106;-91
2024/01/18 06:51:23;;;;;;;4.50;4.00;;;-2.70;99.90;;;;;;4835651;29;20064;-92
2024/01/18 06:53:50;;;;;;;3.95;3.72;;;-2.70;99.90;;;;;;4852143;29;20088;-94
2024/01/18 06:56:15;;;;;;;4.35;3.92;;;-2.70;99.90;;;;;;4848635;29;20078;-94
2024/01/18 06:58:42;;;;;;;4.75;4.07;;;-2.70;99.90;;;;;;4837433;29;20065;-95
2024/01/18 07:01:09;;;;;;;4.13;3.83;;;-2.70;99.90;;;;;;4834457;29;20053;-93
2024/01/18 07:03:35;;;;;;;4.03;3.72;;;-2.80;99.90;;;;;;4836458;29;20133;-93
2024/01/18 07:06:04;;;;;;;4.05;3.75;;;-2.80;99.90;;;;;;4849750;29;20045;-93
2024/01/18 07:08:30;;;;;;;4.00;3.70;;;-2.90;99.90;;;;;;4856280;29;20163;-93
2024/01/18 07:10:57;;;;;;;4.10;3.80;;;-2.90;99.90;;;;;;4846484;29;20117;-95
2024/01/18 07:13:23;;;;;;;3.80;3.60;;;-2.90;99.90;;;;;;4857359;29;20046;-92
2024/01/18 07:15:49;;;;;;;4.00;3.65;;;-2.90;99.90;;;;;;4850784;29;20042;-93
2024/01/18 07:18:14;;;;;;;4.10;3.70;;;-2.90;99.90;;;;;;4855406;29;20061;-94
2024/01/18 07:20:40;;;;;;;4.05;3.85;;;-3.00;99.90;;;;;;4851286;29;20049;-93
2024/01/18 07:23:06;;;;;;;3.90;3.63;;;-2.80;99.90;;;;;;4849466;29;20085;-94
2024/01/18 07:25:32;;;;;;;3.97;3.72;;;-2.90;99.90;;;;;;4843407;29;20048;-94
2024/01/18 07:27:58;;;;;;;4.05;3.83;;;-2.90;99.90;;;;;;4865344;29;20046;-93
2024/01/18 07:30:23;;;;;;;3.88;3.60;;;-2.90;99.90;;;;;;4833320;29;20107;-93
2024/01/18 07:32:49;;;;;;;3.58;3.30;;;-2.90;99.90;;;;;;4834847;29;20049;-90
2024/01/18 07:35:15;;;;;;;4.00;3.70;;;-2.50;99.90;;;;;;4833506;29;20081;-91
2024/01/18 07:37:41;;;;;;;4.10;3.90;;;-2.90;99.90;;;;;;4863913;29;20050;-90
2024/01/18 07:40:07;;;;;;;4.70;4.32;;;-2.80;99.90;;;;;;4840842;29;20331;-90
2024/01/18 07:42:33;;;;;;;4.05;3.85;;;-2.70;99.90;;;;;;4850138;29;20075;-93
2024/01/18 07:44:59;;;;;;;4.18;3.90;;;-2.70;99.90;;;;;;4836667;29;20050;-94
2024/01/18 07:47:25;;;;;;;3.80;3.50;;;-2.70;99.90;;;;;;4847019;29;20050;-93
2024/01/18 07:49:51;;;;;;;3.75;3.45;;;-2.70;99.90;;;;;;4841440;29;20498;-93
2024/01/18 07:52:17;;;;;;;4.13;3.83;;;-2.70;99.90;;;;;;4841317;29;20042;-91
2024/01/18 07:54:43;;;;;;;3.97;3.67;;;-2.70;99.90;;;;;;4844477;29;20502;-91
2024/01/18 07:57:09;;;;;;;3.70;3.40;;;-2.80;99.90;;;;;;4852478;29;20042;-92
2024/01/18 07:59:35;;;;;;;3.63;3.38;;;-2.70;99.90;;;;;;4852079;29;20038;-91
2024/01/18 08:02:02;;;;;;;5.28;3.70;;;-2.80;99.90;;;;;;4842954;29;20046;-92
2024/01/18 08:04:29;;;;;;;4.10;3.80;;;-2.80;99.90;;;;;;4852880;29;20060;-94
2024/01/18 08:06:55;;;;;;;4.22;3.80;;;-2.70;99.90;;;;;;4853184;29;20056;-94
2024/01/18 08:09:21;;;;;;;4.13;3.83;;;-1.70;99.90;;;;;;4867600;29;20038;-94
2024/01/18 08:11:47;;;;;;;3.80;3.60;;;-2.60;99.90;;;;;;4840448;29;20076;-92
2024/01/18 08:14:14;;;;;;;4.00;3.80;;;-2.50;99.90;;;;;;4851387;29;20466;-93
2024/01/18 08:16:40;;;;;;;4.28;3.97;;;-2.50;99.90;;;;;;4858122;29;20042;-93
2024/01/18 08:19:07;;;;;;;4.30;4.10;;;-2.40;99.90;;;;;;4839177;29;20105;-94
2024/01/18 08:21:33;;;;;;;4.60;4.30;;;-2.30;99.90;;;;;;4845008;29;20061;-93
2024/01/18 08:23:58;;;;;;;5.22;4.28;;;-2.30;99.90;;;;;;4848119;29;20049;-94
2024/01/18 08:26:24;;;;;;;4.20;4.00;;;-2.20;99.90;;;;;;4851795;29;20042;-93
2024/01/18 08:28:50;;;;;;;4.70;4.25;;;-2.20;99.90;;;;;;4853248;29;20045;-91
2024/01/18 08:31:15;;;;;;;4.57;4.22;;;-2.10;99.90;;;;;;4827914;29;20056;-90
2024/01/18 08:33:41;;;;;;;4.45;4.25;;;-1.90;99.90;;;;;;4833817;29;20050;-90
2024/01/18 08:36:13;;;;;;;3.90;3.70;;;-2.00;99.90;;;;;;4833007;29;20074;-90
2024/01/18 08:38:39;;;;;;;4.05;3.63;;;-1.90;99.90;;;;;;4856920;29;20117;-89
2024/01/18 08:41:04;;;;;;;3.78;3.58;;;-1.90;99.90;;;;;;4837118;29;20038;-89
2024/01/18 08:43:31;;;;;;;3.80;3.40;;;-1.90;99.90;;;;;;4851088;29;20049;-89
2024/01/18 08:45:57;;;;;;;3.97;3.40;;;-1.30;99.90;;;;;;4832256;29;20058;-89
2024/01/18 08:48:22;;;;;;;3.75;2.92;;;-1.70;99.90;;;;;;4824323;29;20053;-90
2024/01/18 08:50:48;;;;;;;3.28;3.08;;;-2.30;99.90;;;;;;4837286;29;20060;-92
2024/01/18 08:53:14;;;;;;;3.60;3.40;;;-2.40;99.90;;;;;;4851313;29;20776;-93
2024/01/18 08:55:41;;;;;;;4.13;3.90;;;-2.40;99.90;;;;;;4837002;29;20046;-93
2024/01/18 08:58:07;;;;;;;4.55;4.15;;;-2.20;99.90;;;;;;4853222;29;20054;-94
2024/01/18 09:00:33;;;;;;;4.55;4.18;;;-2.10;99.90;;;;;;4833748;29;20050;-94
2024/01/18 09:03:00;;;;;;;4.05;3.83;;;-1.90;99.90;;;;;;4845346;29;20510;-95
2024/01/18 09:05:26;;;;;;;4.10;3.80;;;-1.80;99.90;;;;;;4835367;29;20605;-93
2024/01/18 09:07:52;;;;;;;4.88;4.57;;;-1.30;99.90;;;;;;4842962;29;20058;-91
2024/01/18 09:10:19;;;;;;;4.63;4.32;;;-1.70;99.90;;;;;;4822483;29;20050;-92
2024/01/18 09:12:45;;;;;;;4.53;4.13;;;-1.60;99.90;;;;;;4842163;29;20112;-91
2024/01/18 09:15:12;;;;;;;4.53;4.32;;;-1.50;99.90;;;;;;4867205;29;20045;-90
2024/01/18 09:17:37;;;;;;;4.25;4.05;;;-1.50;99.90;;;;;;4835223;29;20046;-91
2024/01/18 09:20:04;;;;;;;4.53;4.22;;;-1.40;99.90;;;;;;4847034;29;20457;-91
2024/01/18 09:22:30;;;;;;;4.47;4.18;;;-1.30;99.90;;;;;;4841442;29;20121;-92
2024/01/18 09:24:56;;;;;;;4.70;4.30;;;-1.20;99.90;;;;;;4845471;29;20584;-91
2024/01/18 09:27:23;;;;;;;4.20;3.83;;;-1.10;99.90;;;;;;4853440;29;20045;-90
2024/01/18 09:29:48;;;;;;;4.38;4.07;;;-1.00;99.90;;;;;;4854490;29;20122;-91
2024/01/18 09:32:15;;;;;;;4.20;4.00;;;-1.00;99.90;;;;;;4861218;29;20058;-92
2024/01/18 09:34:41;;;;;;;4.50;4.20;;;-0.90;99.90;;;;;;4840178;29;20060;-92
2024/01/18 09:37:07;;;;;;;4.10;3.90;;;-0.40;99.90;;;;;;4832520;29;20077;-90
2024/01/18 09:39:32;;;;;;;4.47;4.18;;;-0.30;99.90;;;;;;4868095;29;20065;-90
2024/01/18 09:41:58;;;;;;;5.70;4.25;;;-0.70;99.90;;;;;;4851341;29;20053;-91
2024/01/18 09:44:31;;;;;;;4.32;4.03;;;-0.60;99.90;;;;;;4849414;29;20055;-90
2024/01/18 09:46:58;;;;;;;4.00;3.80;;;-0.40;99.90;;;;;;4841891;29;20050;-92
2024/01/18 09:49:30;;;;;;;4.07;3.80;;;1.30;99.90;;;;;;4841143;29;20056;-87
2024/01/18 09:51:58;;;;;;;4.40;4.10;;;-0.30;99.90;;;;;;4853448;29;20054;-89
2024/01/18 09:54:24;;;;;;;4.32;4.03;;;-0.30;99.90;;;;;;4854542;29;20046;-89
2024/01/18 09:56:53;;;;;;;3.92;3.72;;;-0.20;99.90;;;;;;4868295;29;20057;-86
2024/01/18 09:59:21;;;;;;;3.30;3.10;;;-0.10;99.90;;;;;;4854753;29;20042;-82
2024/01/18 10:01:48;;;;;;;3.42;3.13;;;0.50;99.90;;;;;;4851069;29;20383;-84
2024/01/18 10:04:17;;;;;;;3.03;2.83;;;-0.10;99.90;;;;;;4852914;29;20056;-82
2024/01/18 10:06:43;;;;;;;4.25;3.22;;;0.00;99.90;;;;;;4817670;29;20050;-82
2024/01/18 10:09:19;;;;;;;3.15;2.88;;;0.10;99.90;;;;;;4831258;29;20107;-86
2024/01/18 10:11:46;;;;;;;2.67;2.45;;;0.20;99.90;;;;;;4833085;29;20129;-82
2024/01/18 10:14:12;;;;;;;2.88;2.60;;;0.40;99.90;;;;;;4834511;29;20041;-82
2024/01/18 10:16:40;;;;;;;2.70;2.42;;;1.20;99.90;;;;;;4839586;29;20057;-84
2024/01/18 10:19:18;;;;;;;2.58;2.25;;;1.00;99.90;;;;;;4834664;29;20085;-81
2024/01/18 10:21:46;;;;;;;2.78;2.05;;;0.90;99.90;;;;;;4834918;29;20054;-83
2024/01/18 10:24:14;;;;;;;2.90;2.40;;;1.20;99.90;;;;;;4835402;29;20057;-86
2024/01/18 10:26:40;;;;;;;5.72;2.28;;;1.30;99.90;;;;;;4835385;29;20077;-85
2024/01/18 10:29:09;;;;;;;4.53;2.40;;;1.80;99.90;;;;;;4833054;29;20050;-87
2024/01/18 10:31:38;;;;;;;3.20;1.90;;;1.90;99.90;;;;;;4844426;29;20499;-84
2024/01/18 10:34:04;;;;;;;2.95;2.05;;;2.00;99.90;;;;;;4846513;29;20061;-83
2024/01/18 10:36:31;;;;;;;2.38;1.65;;;2.00;99.90;;;;;;4814583;29;20087;-82
2024/01/18 10:38:57;;;;;;;4.53;1.80;;;2.20;99.90;;;;;;4872159;29;20573;-82
2024/01/18 10:41:23;;;;;;;2.40;2.03;;;2.70;99.90;;;;;;4852991;29;20050;-83
2024/01/18 10:43:49;;;;;;;1.98;1.77;;;2.80;99.90;;;;;;4851261;29;20041;-82
2024/01/18 10:46:15;;;;;;;2.33;1.80;;;3.10;99.90;;;;;;4845746;29;20050;-84
2024/01/18 10:48:46;;;;;;;2.55;2.08;;;3.40;99.90;;;;;;4833144;29;20511;-84
2024/01/18 10:51:12;;;;;;;2.35;1.42;;;3.70;99.90;;;;;;4863882;29;20439;-84
2024/01/18 10:53:38;;;;;;;2.25;1.52;;;3.90;99.90;;;;;;4852443;29;20053;-80
2024/01/18 10:56:04;;;;;;;3.55;2.25;;;4.00;99.90;;;;;;4867919;29;20049;-79
2024/01/18 10:58:31;;;;;;;5.07;2.03;;;4.00;99.90;;;;;;4852625;29;20090;-78
2024/01/18 11:00:58;;;;;;;3.72;1.77;;;4.20;99.90;;;;;;4850252;29;20053;-83
2024/01/18 11:03:24;;;;;;;1.73;1.63;;;4.10;99.90;;;;;;4852565;29;20517;-78
2024/01/18 11:05:51;;;;;;;2.00;1.88;;;4.30;99.90;;;;;;4835486;29;20058;-80
2024/01/18 11:08:17;;;;;;;2.13;1.92;;;4.20;99.90;;;;;;4816512;29;20118;-81
2024/01/18 11:10:47;;;;;;;2.38;1.65;;;4.30;99.90;;;;;;4815482;29;20088;-83
2024/01/18 11:13:17;;;;;;;3.35;2.03;;;4.50;99.90;;;;;;4815306;29;20061;-83
2024/01/18 11:15:44;;;;;;;2.22;1.75;;;4.70;99.90;;;;;;4847578;29;20545;-85
2024/01/18 11:18:12;;;;;;;2.65;1.60;;;4.60;99.90;;;;;;4832622;29;20107;-85
2024/01/18 11:21:00;;;;;;;7.38;2.00;;;4.80;99.90;;;;;;4849317;29;20056;-84
2024/01/18 11:23:33;;;;;;;1.65;1.48;;;4.90;99.90;;;;;;4833504;29;20054;-85
2024/01/18 11:25:59;;;;;;;1.73;1.50;;;4.80;99.90;;;;;;4833788;29;20087;-85
2024/01/18 11:28:26;;;;;;;1.80;1.40;;;4.60;99.90;;;;;;4853112;29;20088;-87
2024/01/18 11:30:53;;;;;;;1.88;1.70;;;4.20;99.90;;;;;;4850328;29;20051;-88
2024/01/18 11:33:20;;;;;;;2.60;1.63;;;3.90;99.90;;;;;;4852668;29;20041;-87
2024/01/18 11:35:47;;;;;;;1.98;1.83;;;3.50;99.90;;;;;;4866919;29;20054;-90
2024/01/18 11:38:32;;;;;;;2.15;1.88;;;3.20;99.90;;;;;;4866824;29;20073;-89
2024/01/18 11:41:11;;;;;;;3.28;2.17;;;3.00;99.90;;;;;;4849519;29;20057;-88
2024/01/18 11:43:54;;;;;;;2.47;2.28;;;2.80;99.90;;;;;;4847931;29;20064;-90
2024/01/18 11:46:45;;;;;;;2.70;2.50;;;2.80;99.90;;;;;;4859994;29;20073;-87
2024/01/18 11:49:11;;;;;;;2.97;2.78;;;2.80;99.90;;;;;;4848935;29;20061;-85
2024/01/18 11:51:38;;;;;;;2.55;2.45;;;2.80;99.90;;;;;;4844512;29;20046;-85
2024/01/18 11:54:05;;;;;;;2.88;2.67;;;2.80;99.90;;;;;;4868314;29;20109;-84
2024/01/18 11:56:35;;;;;;;2.40;2.30;;;3.00;99.90;;;;;;4866351;29;20049;-84
2024/01/18 11:59:01;;;;;;;2.40;2.30;;;2.60;99.90;;;;;;4867776;29;20139;-84
2024/01/18 12:01:27;;;;;;;5.20;2.53;;;2.70;99.90;;;;;;4850353;29;20053;-85
2024/01/18 12:03:53;;;;;;;2.67;2.47;;;2.80;99.90;;;;;;4839186;29;20061;-84
2024/01/18 12:06:19;;;;;;;2.20;2.10;;;2.80;99.90;;;;;;4833448;29;20089;-85
2024/01/18 12:08:45;;;;;;;2.50;2.30;;;2.80;99.90;;;;;;4848698;29;20141;-87
2024/01/18 12:11:11;;;;;;;2.83;2.70;;;2.60;99.90;;;;;;4834267;29;20046;-86
2024/01/18 12:13:37;;;;;;;3.10;2.80;;;2.50;99.90;;;;;;4847887;29;20593;-85
2024/01/18 12:16:07;;;;;;;3.03;2.83;;;2.50;99.90;;;;;;4833782;29;20098;-85
2024/01/18 12:18:40;;;;;;;2.60;2.40;;;2.40;99.90;;;;;;4832559;29;20553;-83
2024/01/18 12:21:05;;;;;;;4.43;2.75;;;2.40;99.90;;;;;;4849423;29;20079;-84
2024/01/18 12:23:31;;;;;;;2.78;2.67;;;2.40;99.90;;;;;;4848702;29;20553;-86
2024/01/18 12:25:57;;;;;;;3.03;2.83;;;2.40;99.90;;;;;;4848448;29;20046;-85
2024/01/18 12:28:23;;;;;;;3.10;2.90;;;2.30;99.90;;;;;;4837564;29;20128;-86
2024/01/18 12:30:49;;;;;;;3.38;3.17;;;2.20;99.90;;;;;;4847173;29;20110;-83
2024/01/18 12:33:15;;;;;;;3.90;3.63;;;1.90;99.90;;;;;;4834238;29;20054;-85
2024/01/18 12:35:40;;;;;;;4.25;3.95;;;1.80;99.90;;;;;;4832389;29;20081;-85
2024/01/18 12:38:07;;;;;;;4.53;4.20;;;1.90;99.90;;;;;;4835979;29;20138;-86
2024/01/18 12:40:33;;;;;;;4.00;3.80;;;2.10;99.90;;;;;;4850346;29;20053;-86
2024/01/18 12:43:03;;;;;;;4.85;4.43;;;2.30;99.90;;;;;;4870306;29;20109;-85
2024/01/18 12:45:30;;;;;;;6.05;4.10;;;2.40;99.90;;;;;;4869155;29;20053;-84